createdAt,value
2018-12-03T00:00:23.801Z,13.93
2018-12-03T00:05:21.277Z,13.20
2018-12-03T00:10:18.702Z,14.47
2018-12-03T00:15:16.161Z,13.30
2018-12-03T00:20:13.579Z,12.70
2018-12-03T00:25:11.003Z,12.53
2018-12-03T00:30:10.320Z,13.80
2018-12-03T00:35:08.625Z,13.83
2018-12-03T00:40:06.546Z,16.30
2018-12-03T00:45:04.295Z,14.77
2018-12-03T00:50:01.725Z,15.43
2018-12-03T00:54:59.159Z,14.93
2018-12-03T01:00:07.633Z,17.17
2018-12-03T01:05:07.233Z,16.80
2018-12-03T01:10:07.235Z,18.30
2018-12-03T01:15:07.161Z,20.00
2018-12-03T01:20:08.857Z,17.90
2018-12-03T01:25:06.630Z,19.03
2018-12-03T01:30:10.645Z,19.70
2018-12-03T01:35:09.238Z,19.50
2018-12-03T01:40:08.661Z,19.70
2018-12-03T01:45:08.234Z,17.70
2018-12-03T01:50:08.018Z,19.57
2018-12-03T01:55:06.974Z,19.97
2018-12-03T02:00:15.283Z,19.47
2018-12-03T02:05:13.118Z,18.97
2018-12-03T02:10:11.663Z,18.73
2018-12-03T02:15:13.549Z,13.07
2018-12-03T02:20:13.043Z,14.93
2018-12-03T02:25:10.941Z,12.97
2018-12-03T02:30:12.343Z,13.23
2018-12-03T02:35:10.750Z,11.90
2018-12-03T02:40:11.425Z,8.13
2018-12-03T02:45:10.976Z,6.63
2018-12-03T02:50:09.765Z,6.27
2018-12-03T02:55:09.208Z,5.30
2018-12-03T03:00:14.436Z,3.60
2018-12-03T03:05:13.149Z,2.87
2018-12-03T03:10:11.645Z,4.10
2018-12-03T03:15:11.058Z,5.60
2018-12-03T03:20:10.425Z,7.40
2018-12-03T03:25:09.032Z,8.90
2018-12-03T03:30:12.332Z,9.90
2018-12-03T03:35:12.010Z,12.33
2018-12-03T03:40:14.029Z,11.00
2018-12-03T03:45:14.030Z,11.17
2018-12-03T03:50:11.455Z,12.67
2018-12-03T03:55:09.493Z,14.90
2018-12-03T04:00:12.238Z,14.20
2018-12-03T04:05:10.732Z,16.60
2018-12-03T04:10:10.102Z,16.20
2018-12-03T04:15:08.976Z,16.57
2018-12-03T04:20:11.725Z,15.60
2018-12-03T04:25:10.198Z,15.50
2018-12-03T04:30:10.989Z,14.77
2018-12-03T04:35:09.124Z,13.43
2018-12-03T04:40:12.841Z,14.73
2018-12-03T04:45:12.402Z,12.30
2018-12-03T04:50:11.185Z,8.97
2018-12-03T04:55:08.858Z,13.40
2018-12-03T05:00:11.718Z,9.97
2018-12-03T05:05:09.667Z,10.77
2018-12-03T05:10:12.638Z,10.90
2018-12-03T05:15:11.061Z,6.87
2018-12-03T05:20:09.765Z,9.10
2018-12-03T05:25:09.380Z,7.93
2018-12-03T05:30:11.915Z,7.23
2018-12-03T05:35:12.357Z,8.10
2018-12-03T05:40:18.574Z,5.83
2018-12-03T05:45:15.989Z,6.47
2018-12-03T05:50:14.221Z,5.30
2018-12-03T05:55:12.265Z,4.07
2018-12-03T06:00:13.935Z,3.23
2018-12-03T06:05:12.299Z,2.43
2018-12-03T06:10:11.088Z,2.37
2018-12-03T06:15:10.771Z,2.80
2018-12-03T06:20:10.715Z,2.90
2018-12-03T06:25:12.819Z,2.93
2018-12-03T06:30:14.448Z,3.93
2018-12-03T06:35:12.965Z,2.60
2018-12-03T06:40:13.618Z,3.50
2018-12-03T06:45:12.398Z,6.17
2018-12-03T06:50:10.071Z,7.10
2018-12-03T06:55:09.099Z,6.70
2018-12-03T07:00:12.994Z,8.10
2018-12-03T07:05:10.957Z,4.60
2018-12-03T07:10:13.761Z,5.50
2018-12-03T07:15:15.046Z,4.13
2018-12-03T07:20:13.195Z,3.00
2018-12-03T07:25:11.362Z,4.20
2018-12-03T07:30:16.043Z,3.47
2018-12-03T07:35:13.567Z,3.57
2018-12-03T07:40:11.621Z,5.47
2018-12-03T07:45:11.609Z,5.90
2018-12-03T07:50:10.347Z,6.87
2018-12-03T07:55:09.970Z,10.47
2018-12-03T08:00:12.836Z,8.20
2018-12-03T08:05:10.736Z,9.17
2018-12-03T08:10:12.493Z,8.70
2018-12-03T08:15:13.262Z,7.60
2018-12-03T08:20:16.485Z,7.60
2018-12-03T08:25:14.020Z,9.80
2018-12-03T08:30:13.062Z,4.80
2018-12-03T08:35:12.094Z,7.47
2018-12-03T08:40:12.291Z,6.60
2018-12-03T08:45:09.749Z,9.33
2018-12-03T08:50:12.390Z,9.80
2018-12-03T08:55:10.978Z,7.50
2018-12-03T09:00:12.691Z,9.03
2018-12-03T09:05:10.946Z,8.30
2018-12-03T09:10:13.781Z,6.03
2018-12-03T09:15:11.221Z,5.00
2018-12-03T09:20:08.916Z,4.43
2018-12-03T09:25:14.528Z,5.23
2018-12-03T09:30:14.459Z,6.30
2018-12-03T09:35:13.916Z,2.30
2018-12-03T09:40:13.415Z,5.80
2018-12-03T09:45:13.166Z,5.40
2018-12-03T09:50:20.830Z,4.93
2018-12-03T09:55:25.506Z,5.63
2018-12-03T10:00:23.659Z,4.20
2018-12-03T10:05:21.395Z,6.20
2018-12-03T10:10:18.802Z,5.77
2018-12-03T10:15:16.280Z,6.17
2018-12-03T10:20:13.723Z,4.73
2018-12-03T10:25:13.238Z,5.87
2018-12-03T10:30:21.010Z,6.20
2018-12-03T10:35:18.614Z,3.70
2018-12-03T10:40:17.614Z,6.43
2018-12-03T10:45:16.821Z,5.67
2018-12-03T10:50:22.018Z,4.30
2018-12-03T10:55:13.852Z,4.87
2018-12-03T11:00:20.783Z,4.07
2018-12-03T11:06:24.569Z,4.80
2018-12-03T11:11:22.095Z,2.70
2018-12-03T11:16:27.084Z,3.40
2018-12-03T11:21:25.503Z,4.30
2018-12-03T11:26:34.769Z,4.57
2018-12-03T11:31:33.352Z,5.17
2018-12-03T11:36:33.974Z,4.50
2018-12-03T11:41:31.446Z,5.20
2018-12-03T11:46:28.881Z,4.37
2018-12-03T11:51:26.322Z,4.07
2018-12-03T11:56:23.736Z,5.47
2018-12-03T12:01:21.329Z,5.60
2018-12-03T12:06:18.741Z,5.57
2018-12-03T12:11:16.176Z,4.37
2018-12-03T12:16:13.620Z,6.33
2018-12-03T12:21:11.089Z,6.33
2018-12-03T12:26:08.540Z,6.07
2018-12-03T12:31:06.576Z,5.67
2018-12-03T12:36:04.011Z,5.63
2018-12-03T12:41:01.556Z,5.30
2018-12-03T12:46:02.215Z,5.63
2018-12-03T12:50:59.705Z,5.13
2018-12-03T12:55:57.141Z,5.50
2018-12-03T13:00:54.587Z,5.83
2018-12-03T13:05:52.018Z,4.97
2018-12-03T13:10:49.558Z,5.60
2018-12-03T13:15:47.016Z,6.63
2018-12-03T13:20:44.447Z,4.60
2018-12-03T13:25:41.931Z,6.47
2018-12-03T13:30:39.397Z,6.03
2018-12-03T13:35:36.844Z,6.50
2018-12-03T13:40:34.255Z,6.93
2018-12-03T13:45:31.667Z,5.37
2018-12-03T13:50:29.117Z,7.27
2018-12-03T13:55:26.573Z,7.40
2018-12-03T14:00:25.386Z,8.13
2018-12-03T14:05:22.896Z,7.33
2018-12-03T14:10:26.054Z,5.20
2018-12-03T14:15:49.571Z,6.60
2018-12-03T14:20:48.744Z,6.77
2018-12-03T14:25:46.153Z,6.93
2018-12-03T14:30:43.645Z,6.30
2018-12-03T14:35:41.086Z,5.60
2018-12-03T14:40:38.518Z,5.13
2018-12-03T14:45:35.931Z,6.00
2018-12-03T14:50:33.369Z,6.37
2018-12-03T14:55:30.824Z,6.77
2018-12-03T15:00:28.299Z,7.37
2018-12-03T15:05:25.750Z,6.63
2018-12-03T15:10:23.273Z,5.60
2018-12-03T15:15:20.707Z,7.73
2018-12-03T15:20:18.134Z,7.60
2018-12-03T15:25:15.551Z,7.80
2018-12-03T15:30:14.282Z,8.07
2018-12-03T15:35:11.841Z,8.70
2018-12-03T15:40:12.136Z,8.40
2018-12-03T15:45:10.889Z,8.20
2018-12-03T15:50:08.361Z,9.00
2018-12-03T15:55:06.878Z,8.57
2018-12-03T16:00:10.579Z,7.73
2018-12-03T16:05:10.833Z,6.00
2018-12-03T16:10:10.748Z,5.93
2018-12-03T16:15:08.762Z,5.30
2018-12-03T16:20:07.946Z,4.90
2018-12-03T16:25:06.806Z,5.13
2018-12-03T16:30:09.818Z,4.90
2018-12-03T16:35:07.309Z,6.33
2018-12-03T16:40:06.253Z,6.00
2018-12-03T16:45:04.442Z,4.63
2018-12-03T16:50:01.955Z,5.43
2018-12-03T16:54:59.370Z,6.13
2018-12-03T16:59:57.493Z,5.93
2018-12-03T17:04:55.145Z,6.50
2018-12-03T17:09:52.645Z,6.00
2018-12-03T17:14:50.327Z,5.60
2018-12-03T17:19:49.339Z,6.80
2018-12-03T17:24:47.826Z,5.67
2018-12-03T17:29:51.526Z,6.67
2018-12-03T17:34:49.062Z,7.60
2018-12-03T17:39:46.463Z,6.43
2018-12-03T17:44:43.965Z,6.63
2018-12-03T17:49:43.824Z,6.43
2018-12-03T17:54:41.553Z,8.60
2018-12-03T17:59:41.986Z,8.00
2018-12-03T18:04:40.522Z,8.80
2018-12-03T18:09:38.002Z,9.00
2018-12-03T18:14:36.335Z,8.03
2018-12-03T18:19:33.869Z,8.77
2018-12-03T18:25:00.524Z,8.57
2018-12-03T18:29:58.615Z,7.87
2018-12-03T18:34:54.680Z,8.10
2018-12-03T18:39:50.669Z,7.27
2018-12-03T18:44:46.664Z,8.20
2018-12-03T18:49:42.667Z,8.10
2018-12-03T18:54:38.652Z,7.77
2018-12-03T18:59:38.546Z,8.27
2018-12-03T19:04:34.593Z,7.30
2018-12-03T19:09:30.604Z,9.00
2018-12-03T19:14:26.592Z,8.30
2018-12-03T19:19:22.609Z,9.03
2018-12-03T19:24:18.668Z,9.57
2018-12-03T19:29:14.709Z,9.00
2018-12-03T19:34:10.708Z,10.50
2018-12-03T19:39:06.801Z,9.60
2018-12-03T19:44:02.896Z,9.97
2018-12-03T19:48:58.888Z,11.80
2018-12-03T19:53:55.921Z,11.13
2018-12-03T19:58:51.919Z,8.00
2018-12-03T20:03:48.012Z,7.47
2018-12-03T20:08:44.008Z,6.33
2018-12-03T20:13:40.114Z,7.70
2018-12-03T20:18:36.158Z,11.20
2018-12-03T20:23:32.261Z,11.23
2018-12-03T20:28:28.523Z,11.47
2018-12-03T20:33:24.754Z,11.03
2018-12-03T20:38:20.789Z,6.97
2018-12-03T20:43:16.786Z,11.20
2018-12-03T20:48:12.777Z,12.23
2018-12-03T20:53:08.999Z,7.57
2018-12-03T20:58:05.715Z,9.67
2018-12-03T21:03:01.773Z,10.43
2018-12-03T21:07:57.761Z,9.27
2018-12-03T21:12:53.853Z,13.10
2018-12-03T21:17:50.749Z,10.90
2018-12-03T21:22:47.764Z,8.43
2018-12-03T21:27:43.853Z,10.57
2018-12-03T21:32:39.849Z,12.10
2018-12-03T21:37:35.907Z,12.57
2018-12-03T21:42:31.897Z,14.23
2018-12-03T21:47:27.901Z,11.40
2018-12-03T21:52:23.985Z,12.53
2018-12-03T21:57:20.046Z,11.97
2018-12-03T22:02:16.044Z,10.73
2018-12-03T22:07:12.153Z,9.90
2018-12-03T22:12:08.254Z,11.97
2018-12-03T22:17:04.454Z,10.50
2018-12-03T22:22:00.441Z,7.50
2018-12-03T22:26:56.462Z,6.03
2018-12-03T22:31:52.456Z,9.73
2018-12-03T22:36:48.533Z,12.20
2018-12-03T22:41:44.533Z,10.90
2018-12-03T22:46:40.526Z,8.33
2018-12-03T22:51:36.529Z,6.63
2018-12-03T22:56:33.428Z,5.70
2018-12-03T23:01:29.665Z,3.37
2018-12-03T23:06:25.663Z,2.90
2018-12-03T23:11:22.237Z,4.47
2018-12-03T23:16:18.308Z,1.67
2018-12-03T23:21:14.308Z,6.40
2018-12-03T23:26:10.309Z,4.90
2018-12-03T23:31:06.396Z,5.00
2018-12-03T23:36:02.393Z,3.97
2018-12-03T23:40:58.509Z,4.63
2018-12-03T23:45:54.516Z,3.30
2018-12-03T23:50:50.505Z,1.37
2018-12-03T23:55:46.605Z,1.07
